Time;durP1;ratioP1;P1;durP2;ratioP2;P2;SDS_P1;SDS_P2;PMS_P1;PMS_P2;Temp;Humidity;BMP_temperature;BMP_pressure;BME280_temperature;BME280_humidity;BME280_pressure;Samples;Min_cycle;Max_cycle;Signal;HPM_P1;HPM_P2
2023/11/22 00:00:09;;;;;;;11.40;9.23;;;;;21.50;101483.00;;;;2070956;28;20214;-66
2023/11/22 00:01:10;;;;;;;10.73;9.60;;;;;21.50;101477.00;;;;2062847;28;20218;-66
2023/11/22 00:02:10;;;;;;;11.30;8.93;;;;;21.50;101486.00;;;;2062681;28;20453;-66
2023/11/22 00:03:11;;;;;;;11.20;9.20;;;;;21.50;101475.00;;;;2052792;28;20219;-66
2023/11/22 00:04:11;;;;;;;12.37;9.30;;;;;21.50;101485.00;;;;2052579;28;20238;-66
2023/11/22 00:05:12;;;;;;;12.13;9.50;;;;;21.50;101465.00;;;;2060033;28;20222;-66
2023/11/22 00:06:12;;;;;;;11.53;9.10;;;;;21.50;101478.00;;;;2064245;28;20223;-66
2023/11/22 00:07:13;;;;;;;9.03;7.70;;;;;21.50;101472.00;;;;2064297;28;20649;-66
2023/11/22 00:08:13;;;;;;;10.00;7.87;;;;;21.50;101469.00;;;;2064584;28;20273;-66
2023/11/22 00:09:14;;;;;;;9.87;7.70;;;;;21.50;101464.00;;;;2051077;28;20212;-66
2023/11/22 00:10:14;;;;;;;9.68;8.38;;;;;21.50;101480.00;;;;2061522;28;20222;-66
2023/11/22 00:11:15;;;;;;;10.33;8.60;;;;;21.50;101468.00;;;;2063054;28;20647;-66
2023/11/22 00:12:17;;;;;;;9.33;8.33;;;;;21.50;101472.00;;;;2062935;28;20266;-66
2023/11/22 00:13:17;;;;;;;10.98;8.45;;;;;21.50;101477.00;;;;2062797;28;20672;-66
2023/11/22 00:14:18;;;;;;;9.17;7.80;;;;;21.50;101472.00;;;;2053996;28;20219;-66
2023/11/22 00:15:18;;;;;;;9.60;7.40;;;;;21.50;101493.00;;;;2067381;28;20226;-66
2023/11/22 00:16:18;;;;;;;9.17;7.93;;;;;21.50;101474.00;;;;2067880;28;20239;-66
2023/11/22 00:17:19;;;;;;;10.07;8.03;;;;;21.50;101477.00;;;;2064332;28;20599;-66
2023/11/22 00:18:19;;;;;;;10.13;8.23;;;;;21.50;101476.00;;;;2067558;28;20603;-66
2023/11/22 00:19:22;;;;;;;9.13;7.63;;;;;21.50;101480.00;;;;2054724;28;20219;-66
2023/11/22 00:20:22;;;;;;;7.53;6.70;;;;;21.40;101476.00;;;;2061685;28;20318;-66
2023/11/22 00:21:22;;;;;;;8.40;7.40;;;;;21.40;101468.00;;;;2065262;28;20222;-66
2023/11/22 00:22:23;;;;;;;9.13;7.77;;;;;21.40;101471.00;;;;2065193;28;20225;-66
2023/11/22 00:23:29;;;;;;;9.10;7.33;;;;;21.40;101471.00;;;;2057120;28;20270;-66
2023/11/22 00:24:30;;;;;;;8.40;6.45;;;;;21.50;101470.00;;;;2064427;28;20591;-66
2023/11/22 00:25:30;;;;;;;8.03;6.87;;;;;21.40;101467.00;;;;2066798;28;20219;-66
2023/11/22 00:26:32;;;;;;;8.60;7.70;;;;;21.40;101472.00;;;;2059324;28;20228;-66
2023/11/22 00:27:32;;;;;;;7.63;6.82;;;;;21.40;101476.00;;;;2056885;28;20219;-66
2023/11/22 00:28:32;;;;;;;9.57;6.77;;;;;21.40;101467.00;;;;2053983;28;20215;-66
2023/11/22 00:29:33;;;;;;;7.97;6.87;;;;;21.50;101473.00;;;;2063414;28;20285;-66
2023/11/22 00:30:34;;;;;;;7.87;6.63;;;;;21.40;101483.00;;;;2063940;28;20233;-66
2023/11/22 00:31:34;;;;;;;8.40;7.53;;;;;21.40;101480.00;;;;2063876;28;20242;-66
2023/11/22 00:32:34;;;;;;;8.00;6.90;;;;;21.40;101480.00;;;;2067586;28;20237;-66
2023/11/22 00:33:35;;;;;;;8.80;6.60;;;;;21.40;101481.00;;;;2055326;28;20229;-66
2023/11/22 00:34:36;;;;;;;7.80;6.50;;;;;21.40;101480.00;;;;2063315;28;20229;-66
2023/11/22 00:35:36;;;;;;;7.53;6.13;;;;;21.40;101473.00;;;;2064688;28;20310;-66
2023/11/22 00:36:37;;;;;;;7.63;6.83;;;;;21.40;101482.00;;;;2055513;28;20227;-66
2023/11/22 00:37:37;;;;;;;8.40;6.20;;;;;21.40;101486.00;;;;2054717;28;20223;-66
2023/11/22 00:38:39;;;;;;;7.17;6.20;;;;;21.40;101483.00;;;;2051825;28;20716;-66
2023/11/22 00:39:39;;;;;;;6.40;5.78;;;;;21.40;101484.00;;;;2068366;28;20570;-66
2023/11/22 00:40:40;;;;;;;6.87;6.17;;;;;21.40;101488.00;;;;2065042;28;20235;-66
2023/11/22 00:41:40;;;;;;;6.70;5.83;;;;;21.40;101481.00;;;;2062944;28;20221;-66
2023/11/22 00:42:42;;;;;;;6.80;6.10;;;;;21.40;101481.00;;;;2064064;28;20218;-66
2023/11/22 00:43:42;;;;;;;6.78;5.97;;;;;21.40;101486.00;;;;2047232;28;20227;-66
2023/11/22 00:44:43;;;;;;;7.83;6.40;;;;;21.40;101482.00;;;;2070627;28;20210;-66
2023/11/22 00:45:43;;;;;;;7.60;5.73;;;;;21.40;101479.00;;;;2064763;28;20218;-66
2023/11/22 00:46:45;;;;;;;8.60;6.60;;;;;21.40;101479.00;;;;2069185;28;20553;-66
2023/11/22 00:47:45;;;;;;;6.47;5.65;;;;;21.40;101474.00;;;;2064586;28;20274;-66
2023/11/22 00:48:46;;;;;;;8.10;6.33;;;;;21.40;101479.00;;;;2055510;28;20261;-66
2023/11/22 00:49:46;;;;;;;6.80;5.43;;;;;21.40;101480.00;;;;2063002;28;20281;-66
2023/11/22 00:50:46;;;;;;;6.80;5.77;;;;;21.40;101480.00;;;;2064094;28;20241;-66
2023/11/22 00:51:47;;;;;;;6.83;5.70;;;;;21.40;101485.00;;;;2066162;28;20211;-66
2023/11/22 00:52:48;;;;;;;7.40;6.60;;;;;21.40;101472.00;;;;2064817;28;20207;-66
2023/11/22 00:53:49;;;;;;;6.93;5.53;;;;;21.40;101488.00;;;;2051957;28;20477;-66
2023/11/22 00:54:49;;;;;;;6.97;5.22;;;;;21.40;101490.00;;;;2064640;28;20288;-66
2023/11/22 00:55:50;;;;;;;7.53;6.20;;;;;21.30;101490.00;;;;2063567;28;20215;-66
2023/11/22 00:56:50;;;;;;;6.00;5.40;;;;;21.30;101485.00;;;;2061822;28;20222;-66
2023/11/22 00:57:50;;;;;;;7.00;4.73;;;;;21.40;101484.00;;;;2064719;28;20214;-66
2023/11/22 00:58:53;;;;;;;6.13;5.23;;;;;21.30;101494.00;;;;2058332;28;20225;-66
2023/11/22 00:59:53;;;;;;;7.07;6.00;;;;;21.30;101487.00;;;;2063818;28;20210;-66
2023/11/22 01:00:54;;;;;;;8.77;6.00;;;;;21.40;101474.00;;;;2062742;28;20686;-66
2023/11/22 01:01:55;;;;;;;6.20;5.50;;;;;21.30;101475.00;;;;2064791;28;20262;-66
2023/11/22 01:02:55;;;;;;;6.10;5.20;;;;;21.30;101480.00;;;;2064440;28;20226;-66
2023/11/22 01:03:55;;;;;;;7.80;5.70;;;;;21.30;101479.00;;;;2058452;28;20222;-66
2023/11/22 01:04:55;;;;;;;5.93;4.67;;;;;21.30;101479.00;;;;2064290;28;20211;-66
2023/11/22 01:05:56;;;;;;;5.70;4.30;;;;;21.30;101481.00;;;;2063506;28;20574;-66
2023/11/22 01:06:56;;;;;;;6.10;5.07;;;;;21.30;101485.00;;;;2064085;28;20604;-66
2023/11/22 01:07:56;;;;;;;6.17;5.37;;;;;21.40;101485.00;;;;2060923;28;20705;-66
2023/11/22 01:08:57;;;;;;;5.90;5.07;;;;;21.30;101491.00;;;;2048620;28;20784;-66
2023/11/22 01:09:57;;;;;;;6.90;5.17;;;;;21.30;101492.00;;;;2064682;28;20927;-66
2023/11/22 01:10:57;;;;;;;5.10;4.60;;;;;21.30;101492.00;;;;2064840;28;20705;-66
2023/11/22 01:11:58;;;;;;;5.17;4.50;;;;;21.30;101494.00;;;;2064636;28;20222;-66
2023/11/22 01:12:58;;;;;;;5.37;4.20;;;;;21.30;101478.00;;;;2066159;28;20207;-66
2023/11/22 01:13:59;;;;;;;6.00;4.80;;;;;21.30;101494.00;;;;2054074;28;20222;-66
2023/11/22 01:14:59;;;;;;;5.77;4.60;;;;;21.30;101497.00;;;;2063792;28;20215;-66
2023/11/22 01:15:59;;;;;;;6.30;4.87;;;;;21.20;101464.00;;;;2063614;28;20211;-66
2023/11/22 01:17:00;;;;;;;5.03;4.50;;;;;21.30;101496.00;;;;2058806;28;20229;-66
2023/11/22 01:18:00;;;;;;;5.80;4.50;;;;;21.30;101506.00;;;;2063059;28;20260;-66
2023/11/22 01:19:00;;;;;;;5.03;4.10;;;;;21.30;101502.00;;;;2054989;28;20214;-66
2023/11/22 01:20:03;;;;;;;5.60;4.60;;;;;21.30;101509.00;;;;2062874;28;20221;-66
2023/11/22 01:21:06;;;;;;;6.00;4.30;;;;;21.30;101510.00;;;;2063776;28;20293;-66
2023/11/22 01:22:06;;;;;;;5.40;4.65;;;;;21.30;101502.00;;;;2065478;28;20199;-66
2023/11/22 01:23:06;;;;;;;6.10;4.53;;;;;21.30;101513.00;;;;2068264;28;20557;-66
2023/11/22 01:24:07;;;;;;;5.33;4.60;;;;;21.30;101513.00;;;;2054944;28;20682;-66
2023/11/22 01:25:08;;;;;;;5.20;4.30;;;;;21.30;101504.00;;;;2066663;28;20746;-66
2023/11/22 01:26:08;;;;;;;5.27;4.27;;;;;21.30;101504.00;;;;2064100;28;20887;-66
2023/11/22 01:27:08;;;;;;;5.30;4.47;;;;;21.30;101504.00;;;;2063744;28;20198;-66
2023/11/22 01:28:11;;;;;;;6.27;4.67;;;;;21.30;101506.00;;;;2063774;28;20310;-66
2023/11/22 01:29:12;;;;;;;4.72;4.22;;;;;21.20;101506.00;;;;2053975;28;20214;-66
2023/11/22 01:30:12;;;;;;;4.90;4.20;;;;;21.30;101508.00;;;;2058923;28;20222;-66
2023/11/22 01:31:13;;;;;;;5.10;4.20;;;;;21.30;101513.00;;;;2063713;28;20222;-66
2023/11/22 01:32:13;;;;;;;5.00;4.50;;;;;21.30;101507.00;;;;2063335;28;20230;-66
2023/11/22 01:33:14;;;;;;;5.20;4.70;;;;;21.20;101510.00;;;;2062574;28;20293;-66
2023/11/22 01:34:14;;;;;;;4.50;3.93;;;;;21.20;101515.00;;;;2053122;28;20222;-66
2023/11/22 01:35:15;;;;;;;4.57;3.90;;;;;21.20;101522.00;;;;2064258;28;20227;-66
2023/11/22 01:36:25;;;;;;;4.47;4.07;;;;;21.20;101531.00;;;;2064231;28;20846;-66
2023/11/22 01:37:27;;;;;;;4.95;4.35;;;;;21.20;101530.00;;;;2066528;28;20450;-66
2023/11/22 01:38:27;;;;;;;5.25;3.75;;;;;21.30;101531.00;;;;2047270;28;20214;-66
2023/11/22 01:39:27;;;;;;;4.77;4.13;;;;;21.20;101540.00;;;;2063286;28;20207;-66
2023/11/22 01:40:28;;;;;;;5.40;4.50;;;;;21.20;101535.00;;;;2061860;28;20234;-66
2023/11/22 01:41:29;;;;;;;5.20;3.90;;;;;21.20;101534.00;;;;2066120;28;20218;-66
2023/11/22 01:42:30;;;;;;;3.75;3.13;;;;;21.20;101548.00;;;;2065718;28;20238;-66
2023/11/22 01:43:31;;;;;;;4.83;4.20;;;;;21.20;101538.00;;;;2053688;28;20215;-66
2023/11/22 01:44:31;;;;;;;4.23;3.60;;;;;21.10;101538.00;;;;2063814;28;20763;-66
2023/11/22 01:45:32;;;;;;;4.80;4.17;;;;;21.20;101545.00;;;;2063781;28;20819;-66
2023/11/22 01:46:33;;;;;;;4.43;4.00;;;;;21.20;101539.00;;;;2058033;28;20717;-66
2023/11/22 01:47:34;;;;;;;3.63;3.20;;;;;21.20;101547.00;;;;2055898;28;20230;-66
2023/11/22 01:48:36;;;;;;;4.38;3.80;;;;;21.20;101550.00;;;;2051615;28;20740;-66
2023/11/22 01:49:36;;;;;;;3.92;3.42;;;;;21.20;101545.00;;;;2055292;28;20220;-66
2023/11/22 01:50:40;;;;;;;4.93;3.70;;;;;21.20;101549.00;;;;2053245;28;20219;-66
2023/11/22 01:51:40;;;;;;;4.90;3.75;;;;;21.20;101545.00;;;;2054047;28;20318;-66
2023/11/22 01:52:40;;;;;;;6.53;4.30;;;;;21.20;101547.00;;;;2042479;28;20228;-66
2023/11/22 01:53:41;;;;;;;4.37;3.97;;;;;21.20;101543.00;;;;2048812;28;20220;-66
2023/11/22 01:54:44;;;;;;;4.35;3.90;;;;;21.20;101544.00;;;;2070064;28;20218;-66
2023/11/22 01:55:44;;;;;;;3.50;3.13;;;;;21.20;101549.00;;;;2063688;28;20214;-66
2023/11/22 01:56:45;;;;;;;4.37;3.70;;;;;21.10;101526.00;;;;2048036;28;20577;-66
2023/11/22 01:57:45;;;;;;;4.30;3.70;;;;;21.20;101550.00;;;;2053037;28;20269;-66
2023/11/22 01:58:46;;;;;;;6.57;3.93;;;;;21.20;101550.00;;;;2059009;28;20850;-66
2023/11/22 01:59:47;;;;;;;4.87;3.90;;;;;21.20;101542.00;;;;2055187;28;20220;-65
2023/11/22 02:00:50;;;;;;;4.55;3.83;;;;;21.20;101542.00;;;;2055104;28;20222;-65
2023/11/22 02:01:50;;;;;;;3.67;3.35;;;;;21.20;101555.00;;;;2062343;28;20223;-65
2023/11/22 02:02:51;;;;;;;3.70;3.37;;;;;21.10;101558.00;;;;2062379;28;20241;-65
2023/11/22 02:03:53;;;;;;;4.10;3.30;;;;;21.10;101561.00;;;;2053024;28;20231;-65
2023/11/22 02:04:53;;;;;;;4.47;3.70;;;;;21.10;101565.00;;;;2063492;28;20211;-65
2023/11/22 02:05:54;;;;;;;4.83;3.70;;;;;21.20;101571.00;;;;2069767;28;20736;-65
2023/11/22 02:06:55;;;;;;;3.97;3.47;;;;;21.10;101572.00;;;;2061699;28;20689;-65
2023/11/22 02:07:55;;;;;;;3.67;3.13;;;;;21.10;101581.00;;;;2050052;28;20999;-66
2023/11/22 02:08:55;;;;;;;3.63;2.80;;;;;21.20;101580.00;;;;2045492;28;20223;-66
2023/11/22 02:09:56;;;;;;;4.37;3.53;;;;;21.10;101580.00;;;;2062828;28;20250;-66
2023/11/22 02:10:59;;;;;;;4.13;3.50;;;;;21.10;101588.00;;;;2063752;28;20211;-66
2023/11/22 02:12:00;;;;;;;4.15;3.20;;;;;21.10;101580.00;;;;2063411;28;20253;-66
2023/11/22 02:13:04;;;;;;;4.10;3.60;;;;;21.10;101579.00;;;;2068052;28;20214;-66
2023/11/22 02:14:06;;;;;;;4.38;3.00;;;;;21.10;101579.00;;;;2053944;28;20219;-66
2023/11/22 02:15:07;;;;;;;3.80;3.40;;;;;21.10;101582.00;;;;2062900;28;20291;-66
2023/11/22 02:16:08;;;;;;;4.13;3.60;;;;;21.10;101589.00;;;;2063336;28;20214;-66
2023/11/22 02:17:08;;;;;;;3.97;3.40;;;;;21.10;101591.00;;;;2061990;28;20679;-66
2023/11/22 02:18:08;;;;;;;4.40;3.30;;;;;21.10;101594.00;;;;2055020;28;20212;-66
2023/11/22 02:19:16;;;;;;;3.80;3.13;;;;;21.10;101588.00;;;;2051063;28;20224;-66
2023/11/22 02:20:16;;;;;;;4.00;3.53;;;;;21.10;101596.00;;;;2066126;28;20285;-66
2023/11/22 02:21:17;;;;;;;3.77;3.20;;;;;21.10;101589.00;;;;2060490;28;20679;-66
2023/11/22 02:22:17;;;;;;;4.43;3.70;;;;;21.10;101589.00;;;;2061325;28;20223;-66
2023/11/22 02:23:18;;;;;;;4.03;3.63;;;;;21.10;101592.00;;;;2059624;28;20705;-66
2023/11/22 02:24:18;;;;;;;3.30;2.90;;;;;21.10;101588.00;;;;2054087;28;20217;-66
2023/11/22 02:25:18;;;;;;;4.77;3.33;;;;;21.10;101581.00;;;;2063516;28;20225;-66
2023/11/22 02:26:19;;;;;;;4.60;3.33;;;;;21.00;101576.00;;;;2063419;28;20230;-66
2023/11/22 02:27:19;;;;;;;4.10;3.50;;;;;21.00;101580.00;;;;2062885;28;20231;-66
2023/11/22 02:28:19;;;;;;;3.90;3.40;;;;;21.10;101591.00;;;;2063719;28;20663;-66
2023/11/22 02:29:20;;;;;;;4.20;3.80;;;;;21.00;101583.00;;;;2053698;28;20726;-66
2023/11/22 02:30:21;;;;;;;4.00;3.60;;;;;21.00;101585.00;;;;2062977;28;20760;-66
2023/11/22 02:31:22;;;;;;;3.70;3.28;;;;;21.00;101574.00;;;;2064646;28;20222;-66
2023/11/22 02:32:23;;;;;;;4.75;3.67;;;;;21.00;101582.00;;;;2065350;28;20288;-66
2023/11/22 02:33:24;;;;;;;3.93;3.43;;;;;21.00;101583.00;;;;2054600;28;20278;-66
2023/11/22 02:34:25;;;;;;;3.83;3.42;;;;;21.10;101590.00;;;;2064942;28;20516;-66
2023/11/22 02:35:26;;;;;;;4.10;3.50;;;;;21.10;101584.00;;;;2063735;28;20634;-66
2023/11/22 02:36:26;;;;;;;4.07;3.40;;;;;21.00;101588.00;;;;2066087;28;20213;-66
2023/11/22 02:37:27;;;;;;;3.73;3.30;;;;;21.00;101583.00;;;;2065313;28;20561;-66
2023/11/22 02:38:28;;;;;;;4.60;3.17;;;;;21.00;101581.00;;;;2054861;28;20716;-66
2023/11/22 02:39:51;;;;;;;3.30;3.00;;;;;21.00;101586.00;;;;2067115;28;20686;-66
2023/11/22 02:40:52;;;;;;;4.00;3.20;;;;;21.00;101576.00;;;;2026354;28;1044588;-66
2023/11/22 02:41:53;;;;;;;3.35;3.05;;;;;21.00;101574.00;;;;2061516;28;20595;-66
2023/11/22 02:42:53;;;;;;;4.13;3.20;;;;;21.00;101577.00;;;;2063988;28;20243;-66
2023/11/22 02:43:53;;;;;;;5.33;3.33;;;;;21.00;101574.00;;;;2053779;28;20746;-66
2023/11/22 02:44:54;;;;;;;4.10;3.30;;;;;21.00;101575.00;;;;2063790;28;20238;-66
2023/11/22 02:45:54;;;;;;;3.57;2.90;;;;;21.00;101569.00;;;;2063612;28;20226;-66
2023/11/22 02:46:54;;;;;;;3.93;3.10;;;;;21.00;101567.00;;;;2057706;28;20262;-66
2023/11/22 02:47:55;;;;;;;5.17;2.73;;;;;20.90;101569.00;;;;2063305;28;20293;-66
2023/11/22 02:48:55;;;;;;;5.90;3.10;;;;;21.00;101570.00;;;;2060292;28;20210;-66
2023/11/22 02:49:55;;;;;;;3.30;3.00;;;;;21.00;101573.00;;;;2062932;28;20215;-66
2023/11/22 02:50:56;;;;;;;3.73;3.03;;;;;21.00;101579.00;;;;2062979;28;20215;-66
2023/11/22 02:51:56;;;;;;;3.50;2.93;;;;;21.00;101570.00;;;;2063888;28;20288;-66
2023/11/22 02:52:56;;;;;;;3.27;2.97;;;;;21.00;101581.00;;;;2066381;28;20218;-66
2023/11/22 02:53:57;;;;;;;3.60;3.20;;;;;21.00;101577.00;;;;2054282;28;20590;-66
2023/11/22 02:54:57;;;;;;;3.23;2.90;;;;;21.00;101571.00;;;;2063667;28;20579;-66
2023/11/22 02:56:00;;;;;;;3.70;3.00;;;;;21.00;101576.00;;;;2069303;28;20705;-66
2023/11/22 02:57:00;;;;;;;3.05;2.78;;;;;21.00;101582.00;;;;2063001;28;20718;-66
2023/11/22 02:58:02;;;;;;;2.97;2.70;;;;;21.00;101583.00;;;;2066485;28;20237;-66
2023/11/22 02:59:02;;;;;;;3.40;3.10;;;;;21.00;101583.00;;;;2053912;28;20215;-66
2023/11/22 03:00:04;;;;;;;4.00;3.20;;;;;21.00;101577.00;;;;2062254;28;20849;-66
2023/11/22 03:01:04;;;;;;;3.75;3.20;;;;;21.00;101582.00;;;;2063105;28;20273;-66
2023/11/22 03:02:05;;;;;;;3.50;3.10;;;;;20.90;101578.00;;;;2061517;28;20245;-66
2023/11/22 03:03:09;;;;;;;3.50;3.10;;;;;20.90;101580.00;;;;2056550;28;20207;-66
2023/11/22 03:04:10;;;;;;;3.17;2.80;;;;;20.90;101583.00;;;;2054020;28;20215;-66
2023/11/22 03:05:10;;;;;;;4.10;3.30;;;;;20.90;101578.00;;;;2067015;28;20232;-66
2023/11/22 03:06:11;;;;;;;3.40;3.10;;;;;21.00;101583.00;;;;2062716;28;20293;-66
2023/11/22 03:07:11;;;;;;;4.03;3.10;;;;;21.00;101590.00;;;;2062638;28;20212;-66
2023/11/22 03:08:12;;;;;;;3.57;2.93;;;;;21.00;101590.00;;;;2063795;28;20284;-66
2023/11/22 03:09:13;;;;;;;3.25;2.95;;;;;21.00;101594.00;;;;2053646;28;20214;-66
2023/11/22 03:10:13;;;;;;;3.37;2.87;;;;;21.00;101598.00;;;;2063099;28;20207;-66
2023/11/22 03:11:14;;;;;;;4.17;3.00;;;;;21.00;101607.00;;;;2061186;28;20574;-66
2023/11/22 03:12:15;;;;;;;3.60;3.30;;;;;21.00;101608.00;;;;2065686;28;20199;-66
2023/11/22 03:13:16;;;;;;;3.95;2.63;;;;;21.00;101607.00;;;;2063815;28;20207;-66
2023/11/22 03:14:17;;;;;;;4.50;3.53;;;;;21.00;101609.00;;;;2056609;28;20214;-66
2023/11/22 03:15:17;;;;;;;3.73;3.20;;;;;21.00;101620.00;;;;2069073;28;20313;-66
2023/11/22 03:16:18;;;;;;;2.97;2.60;;;;;21.00;101619.00;;;;2062039;28;20254;-66
2023/11/22 03:17:18;;;;;;;3.50;3.20;;;;;21.00;101622.00;;;;2063505;28;20776;-66
2023/11/22 03:18:21;;;;;;;3.63;3.30;;;;;20.90;101616.00;;;;2063695;28;20206;-66
2023/11/22 03:19:21;;;;;;;3.08;2.78;;;;;21.00;101626.00;;;;2055618;28;20225;-66
2023/11/22 03:20:21;;;;;;;3.90;2.87;;;;;20.90;101631.00;;;;2063763;28;20254;-66
2023/11/22 03:21:22;;;;;;;5.50;3.10;;;;;20.90;101623.00;;;;2063489;28;20215;-66
2023/11/22 03:22:25;;;;;;;3.40;2.80;;;;;20.90;101625.00;;;;2063688;28;20222;-66
2023/11/22 03:23:26;;;;;;;3.58;3.20;;;;;20.90;101630.00;;;;2052616;28;20356;-66
2023/11/22 03:24:26;;;;;;;3.10;2.60;;;;;20.90;101628.00;;;;2065364;28;20222;-66
2023/11/22 03:25:26;;;;;;;3.10;2.80;;;;;20.90;101627.00;;;;2063642;28;20261;-66
2023/11/22 03:26:27;;;;;;;3.20;2.87;;;;;20.90;101638.00;;;;2062653;28;20233;-66
2023/11/22 03:27:27;;;;;;;3.30;2.60;;;;;21.00;101634.00;;;;2063455;28;20222;-66
2023/11/22 03:28:30;;;;;;;5.53;3.40;;;;;20.90;101635.00;;;;2053393;28;20239;-66
2023/11/22 03:29:30;;;;;;;3.40;2.90;;;;;20.90;101621.00;;;;2063305;28;20218;-66
2023/11/22 03:30:31;;;;;;;3.63;2.80;;;;;20.90;101621.00;;;;2062744;28;21078;-66
2023/11/22 03:31:31;;;;;;;4.67;3.17;;;;;20.90;101621.00;;;;2062154;28;20275;-66
2023/11/22 03:32:36;;;;;;;3.50;2.70;;;;;20.90;101626.00;;;;2061639;28;20231;-66
2023/11/22 03:33:37;;;;;;;3.25;2.75;;;;;20.90;101624.00;;;;2051751;28;20579;-66
2023/11/22 03:34:37;;;;;;;3.00;2.70;;;;;20.90;101633.00;;;;2064494;28;20257;-66
2023/11/22 03:35:37;;;;;;;3.57;3.27;;;;;20.90;101630.00;;;;2062992;28;20231;-66
2023/11/22 03:36:40;;;;;;;3.90;2.73;;;;;20.90;101629.00;;;;2062532;28;20219;-66
2023/11/22 03:37:40;;;;;;;2.97;2.78;;;;;20.90;101632.00;;;;2063007;28;20277;-66
2023/11/22 03:38:40;;;;;;;3.80;3.33;;;;;20.90;101633.00;;;;2054130;28;20788;-66
2023/11/22 03:39:48;;;;;;;2.80;2.50;;;;;20.90;101634.00;;;;2063484;28;20679;-66
2023/11/22 03:40:48;;;;;;;3.45;2.95;;;;;20.90;101639.00;;;;2066957;28;20297;-66
2023/11/22 03:41:50;;;;;;;4.57;3.50;;;;;20.90;101639.00;;;;2063550;28;20226;-66
2023/11/22 03:42:50;;;;;;;3.42;3.13;;;;;20.90;101644.00;;;;2063174;28;20269;-66
2023/11/22 03:43:51;;;;;;;3.97;3.57;;;;;20.80;101642.00;;;;2054032;28;20226;-66
2023/11/22 03:44:51;;;;;;;3.10;2.80;;;;;20.80;101642.00;;;;2063458;28;20277;-67
2023/11/22 03:45:52;;;;;;;3.50;3.00;;;;;20.80;101638.00;;;;2068304;28;20226;-66
2023/11/22 03:46:53;;;;;;;3.60;3.27;;;;;20.80;101643.00;;;;2064747;28;20214;-66
2023/11/22 03:47:54;;;;;;;3.33;2.80;;;;;20.90;101649.00;;;;2063287;28;20236;-66
2023/11/22 03:48:54;;;;;;;3.60;3.10;;;;;20.80;101644.00;;;;2051363;28;20242;-66
2023/11/22 03:49:54;;;;;;;3.43;3.10;;;;;20.90;101638.00;;;;2062377;28;20225;-66
2023/11/22 03:50:55;;;;;;;3.40;2.57;;;;;20.80;101640.00;;;;2067556;28;20222;-66
2023/11/22 03:51:55;;;;;;;3.43;3.13;;;;;20.80;101640.00;;;;2064339;28;20217;-66
2023/11/22 03:52:56;;;;;;;4.83;3.50;;;;;20.80;101641.00;;;;2064343;28;20218;-66
2023/11/22 03:53:56;;;;;;;3.83;3.10;;;;;20.80;101639.00;;;;2054628;28;20217;-66
2023/11/22 03:54:57;;;;;;;4.07;2.93;;;;;20.80;101641.00;;;;2064083;28;20215;-66
2023/11/22 03:55:57;;;;;;;3.80;3.40;;;;;20.80;101643.00;;;;2061348;28;20351;-66
2023/11/22 03:56:58;;;;;;;4.20;3.27;;;;;20.80;101649.00;;;;2063608;28;20223;-66
2023/11/22 03:57:58;;;;;;;3.60;2.97;;;;;20.90;101654.00;;;;2071469;28;20218;-66
2023/11/22 03:58:59;;;;;;;4.00;3.60;;;;;20.80;101649.00;;;;2053953;28;20694;-66
2023/11/22 03:59:59;;;;;;;3.17;2.87;;;;;20.80;101660.00;;;;2065683;28;20225;-66
2023/11/22 04:01:02;;;;;;;4.43;3.30;;;;;20.90;101656.00;;;;2064058;28;20250;-66
2023/11/22 04:02:02;;;;;;;3.55;3.00;;;;;20.70;101660.00;;;;2064599;28;20679;-66
2023/11/22 04:03:03;;;;;;;3.00;2.70;;;;;20.80;101654.00;;;;2057196;28;20219;-66
2023/11/22 04:04:03;;;;;;;3.10;2.63;;;;;20.80;101656.00;;;;2059212;28;20210;-66
2023/11/22 04:05:04;;;;;;;3.63;3.13;;;;;20.80;101663.00;;;;2078197;28;20214;-66
2023/11/22 04:06:04;;;;;;;3.93;3.10;;;;;20.80;101657.00;;;;2065320;28;20225;-66
2023/11/22 04:07:06;;;;;;;3.80;3.03;;;;;20.80;101671.00;;;;2067023;28;20222;-66
2023/11/22 04:08:08;;;;;;;3.72;3.03;;;;;20.80;101669.00;;;;2063908;28;20238;-66
2023/11/22 04:09:12;;;;;;;4.88;3.33;;;;;20.80;101668.00;;;;2053355;28;22039;-66
2023/11/22 04:10:12;;;;;;;4.35;3.00;;;;;20.80;101680.00;;;;2062009;28;20307;-66
2023/11/22 04:11:13;;;;;;;2.87;2.60;;;;;20.80;101673.00;;;;2064018;28;20221;-66
2023/11/22 04:12:13;;;;;;;3.53;3.20;;;;;20.80;101685.00;;;;2054960;28;20219;-66
2023/11/22 04:13:13;;;;;;;4.40;3.30;;;;;20.80;101683.00;;;;2062467;28;20214;-66
2023/11/22 04:14:14;;;;;;;3.10;2.80;;;;;20.80;101575.00;;;;2053665;28;20245;-66
2023/11/22 04:15:14;;;;;;;3.70;3.13;;;;;20.80;101689.00;;;;2063937;28;20215;-66
2023/11/22 04:16:14;;;;;;;3.90;2.90;;;;;20.80;101691.00;;;;2063758;28;20226;-66
2023/11/22 04:17:15;;;;;;;3.30;3.00;;;;;20.80;101693.00;;;;2061877;28;20716;-66
2023/11/22 04:18:15;;;;;;;3.10;2.80;;;;;20.80;101691.00;;;;2062909;28;20207;-66
2023/11/22 04:19:16;;;;;;;5.27;2.90;;;;;20.80;101688.00;;;;2054462;28;20231;-66
2023/11/22 04:20:17;;;;;;;3.23;2.60;;;;;20.70;101692.00;;;;2065060;28;20232;-66
2023/11/22 04:21:18;;;;;;;2.90;2.53;;;;;20.70;101696.00;;;;2061104;28;20210;-66
2023/11/22 04:22:19;;;;;;;3.30;3.00;;;;;20.80;101701.00;;;;2055091;28;20277;-66
2023/11/22 04:23:21;;;;;;;3.67;3.37;;;;;20.80;101703.00;;;;2070408;28;20237;-66
2023/11/22 04:24:21;;;;;;;3.63;2.80;;;;;20.70;101712.00;;;;2060913;28;20218;-66
2023/11/22 04:25:21;;;;;;;3.80;3.10;;;;;20.80;101703.00;;;;2064392;28;20237;-66
2023/11/22 04:26:24;;;;;;;2.70;2.50;;;;;20.80;101707.00;;;;2069127;28;20233;-66
2023/11/22 04:27:24;;;;;;;2.83;2.30;;;;;20.80;101708.00;;;;2065009;28;20217;-66
2023/11/22 04:28:25;;;;;;;4.30;3.10;;;;;20.80;101705.00;;;;2055026;28;20226;-66
2023/11/22 04:29:25;;;;;;;3.73;2.90;;;;;20.70;101704.00;;;;2064976;28;20223;-66
2023/11/22 04:30:26;;;;;;;4.10;2.90;;;;;20.60;101695.00;;;;2064763;28;20281;-66
2023/11/22 04:31:26;;;;;;;4.00;2.83;;;;;20.70;101704.00;;;;2070265;28;20211;-66
2023/11/22 04:32:26;;;;;;;3.73;3.03;;;;;20.80;101705.00;;;;2064552;28;20686;-66
2023/11/22 04:33:29;;;;;;;3.30;2.63;;;;;20.80;101699.00;;;;2055113;28;20232;-66
2023/11/22 04:34:30;;;;;;;3.83;2.95;;;;;20.70;101694.00;;;;2065002;28;20230;-66
2023/11/22 04:35:34;;;;;;;2.77;2.50;;;;;20.70;101694.00;;;;2067970;28;20234;-66
2023/11/22 04:36:34;;;;;;;4.05;2.92;;;;;20.70;101697.00;;;;2066945;28;20282;-66
2023/11/22 04:37:34;;;;;;;3.37;3.00;;;;;20.80;101699.00;;;;2060186;28;20618;-66
2023/11/22 04:38:34;;;;;;;4.50;2.90;;;;;20.70;101700.00;;;;2055054;28;20749;-66
2023/11/22 04:39:35;;;;;;;3.70;3.10;;;;;20.70;101700.00;;;;2064883;28;20690;-66
2023/11/22 04:40:37;;;;;;;3.30;2.70;;;;;20.70;101699.00;;;;2066633;28;20229;-66
2023/11/22 04:41:37;;;;;;;3.10;2.80;;;;;20.70;101700.00;;;;2063198;28;20280;-66
2023/11/22 04:42:37;;;;;;;3.17;2.60;;;;;20.70;101697.00;;;;2066687;28;20744;-66
2023/11/22 04:43:38;;;;;;;3.10;2.40;;;;;20.70;101700.00;;;;2059002;28;20242;-66
2023/11/22 04:44:38;;;;;;;3.60;2.87;;;;;20.70;101697.00;;;;2062948;28;20281;-66
2023/11/22 04:45:38;;;;;;;3.10;2.80;;;;;20.70;101705.00;;;;2063080;28;20222;-66
2023/11/22 04:46:39;;;;;;;3.40;2.77;;;;;20.70;101701.00;;;;2064609;28;20223;-66
2023/11/22 04:47:39;;;;;;;3.00;2.47;;;;;20.70;101703.00;;;;2064024;28;20750;-66
2023/11/22 04:48:42;;;;;;;2.77;2.50;;;;;20.70;101697.00;;;;2055242;28;20673;-66
2023/11/22 04:49:43;;;;;;;3.20;2.90;;;;;20.70;101696.00;;;;2066826;28;20223;-66
2023/11/22 04:50:43;;;;;;;5.30;3.70;;;;;20.70;101698.00;;;;2067938;28;20219;-66
2023/11/22 04:51:45;;;;;;;6.20;2.80;;;;;20.70;101705.00;;;;2064390;28;20461;-66
2023/11/22 04:52:46;;;;;;;3.22;2.75;;;;;20.70;101700.00;;;;2067866;28;20717;-66
2023/11/22 04:53:46;;;;;;;4.60;2.87;;;;;20.70;101699.00;;;;2055202;28;20223;-69
2023/11/22 04:54:47;;;;;;;4.10;3.70;;;;;20.60;101701.00;;;;2064309;28;21040;-65
2023/11/22 04:55:48;;;;;;;10.50;2.73;;;;;20.70;101697.00;;;;2061639;28;20706;-65
2023/11/22 04:56:50;;;;;;;4.10;2.90;;;;;20.70;101694.00;;;;2065442;28;20211;-65
2023/11/22 04:57:50;;;;;;;2.97;2.33;;;;;20.70;101687.00;;;;2064995;28;20215;-65
2023/11/22 04:58:51;;;;;;;3.30;2.80;;;;;20.70;101697.00;;;;2055197;28;20254;-65
2023/11/22 04:59:51;;;;;;;3.07;2.60;;;;;20.70;101695.00;;;;2064520;28;20215;-65
2023/11/22 05:00:52;;;;;;;4.80;2.70;;;;;20.70;101693.00;;;;2062665;28;20262;-65